createdAt,value
2018-04-16T00:12:43.141Z,86.97
2018-04-16T00:15:12.427Z,83.43
2018-04-16T00:17:44.512Z,91.27
2018-04-16T01:14:57.937Z,87.27
2018-04-16T01:17:31.032Z,86.47
2018-04-16T01:23:07.068Z,92.03
2018-04-16T01:25:40.916Z,97.60
2018-04-16T01:28:14.045Z,94.20
2018-04-16T01:30:47.203Z,90.47
2018-04-16T01:33:20.364Z,92.83
2018-04-16T01:35:53.612Z,90.33
2018-04-16T01:38:26.727Z,89.97
2018-04-16T01:41:00.609Z,86.33
2018-04-16T01:43:33.729Z,93.80
2018-04-16T01:49:09.752Z,91.33
2018-04-16T01:54:52.045Z,90.80
2018-04-16T01:57:25.277Z,95.93
2018-04-16T01:59:58.592Z,92.70
2018-04-16T02:02:32.000Z,90.67
2018-04-16T02:05:05.172Z,91.03
2018-04-16T02:07:38.374Z,86.00
2018-04-16T02:10:11.638Z,92.63
2018-04-16T02:15:37.546Z,87.00
2018-04-16T02:18:10.822Z,87.33
2018-04-16T02:20:44.120Z,82.93
2018-04-16T02:26:22.312Z,88.30
2018-04-16T02:28:55.555Z,83.27
2018-04-16T02:31:29.579Z,84.63
2018-04-16T02:34:03.441Z,85.47
2018-04-16T02:36:36.623Z,92.23
2018-04-16T02:39:09.761Z,81.77
2018-04-16T02:41:43.706Z,90.10
2018-04-16T02:44:16.808Z,80.10
2018-04-16T02:46:49.928Z,81.37
2018-04-16T02:49:26.143Z,86.97
2018-04-16T02:51:59.398Z,91.70
2018-04-16T02:54:33.426Z,92.07
2018-04-16T02:57:07.322Z,89.07
2018-04-16T02:59:40.672Z,89.63
2018-04-16T03:02:13.808Z,86.87
2018-04-16T03:04:47.715Z,92.23
2018-04-16T03:07:20.840Z,91.07
2018-04-16T03:09:54.832Z,84.57
2018-04-16T03:36:50.329Z,115.60
2018-04-16T03:39:23.620Z,113.13
2018-04-16T03:41:56.783Z,109.97
2018-04-16T03:44:29.939Z,118.80
2018-04-16T03:47:03.113Z,118.70
2018-04-16T03:49:36.244Z,116.73
2018-04-16T03:52:10.473Z,116.33
2018-04-16T03:54:38.010Z,118.87
2018-04-16T03:57:08.810Z,119.27
2018-04-16T03:59:36.363Z,115.90
2018-04-16T04:02:03.900Z,117.93
2018-04-16T04:04:32.046Z,115.20
2018-04-16T04:06:59.598Z,128.63
2018-04-16T04:09:27.138Z,120.13
2018-04-16T04:11:54.687Z,116.53
2018-04-16T04:14:22.227Z,117.73
2018-04-16T04:28:38.580Z,106.87
2018-04-16T04:31:06.141Z,105.23
2018-04-16T04:33:33.729Z,93.53
2018-04-16T04:36:01.272Z,105.00
2018-04-16T04:38:29.593Z,94.17
2018-04-16T04:40:57.147Z,105.23
2018-04-16T04:43:24.693Z,99.03
2018-04-16T04:45:52.226Z,99.07
2018-04-16T04:48:19.807Z,99.17
2018-04-16T04:50:47.380Z,102.13
2018-04-16T04:53:18.114Z,98.93
2018-04-16T04:55:45.655Z,96.70
2018-04-16T04:58:14.762Z,99.63
2018-04-16T05:00:42.311Z,95.93
2018-04-16T05:03:10.660Z,90.90
2018-04-16T05:05:38.200Z,92.70
2018-04-16T05:08:05.750Z,102.40
2018-04-16T05:10:33.300Z,100.40
2018-04-16T05:13:00.879Z,103.37
2018-04-16T05:15:28.512Z,95.67
2018-04-16T05:17:56.340Z,94.13
2018-04-16T05:23:36.981Z,98.40
2018-04-16T05:26:07.711Z,96.73
2018-04-16T05:28:35.241Z,91.97
2018-04-16T05:31:02.782Z,92.13
2018-04-16T05:33:30.470Z,100.23
2018-04-16T05:35:58.062Z,91.63
2018-04-16T05:38:25.624Z,93.17
2018-04-16T05:40:53.379Z,93.53
2018-04-16T05:43:26.807Z,98.60
2018-04-16T05:45:54.375Z,105.67
2018-04-16T05:48:21.920Z,97.57
2018-04-16T05:50:49.549Z,96.50
2018-04-16T05:53:17.947Z,100.50
2018-04-16T05:55:45.482Z,103.30
2018-04-16T05:58:13.027Z,103.33
2018-04-16T06:00:44.465Z,98.83
2018-04-16T06:03:12.006Z,94.70
2018-04-16T06:05:39.555Z,74.03
2018-04-16T06:08:07.723Z,83.47
2018-04-16T06:10:35.254Z,90.03
2018-04-16T08:20:30.291Z,57.73
2018-04-16T08:23:03.539Z,55.43
2018-04-16T08:25:31.103Z,63.43
2018-04-16T08:27:58.638Z,53.50
2018-04-16T08:30:26.206Z,54.20
2018-04-16T08:32:53.755Z,57.30
2018-04-16T08:35:21.398Z,57.83
2018-04-16T08:37:49.699Z,55.47
2018-04-16T08:40:17.266Z,53.57
2018-04-16T08:42:45.091Z,54.90
2018-04-16T08:45:12.633Z,60.20
2018-04-16T08:47:40.183Z,60.30
2018-04-16T08:50:07.766Z,58.33
2018-04-16T08:52:40.991Z,54.43
2018-04-16T08:55:09.321Z,52.47
2018-04-16T08:57:37.194Z,55.10
2018-04-16T09:00:04.731Z,55.33
2018-04-16T09:02:32.282Z,50.97
2018-04-16T09:04:59.829Z,48.23
2018-04-16T09:07:27.392Z,48.97
2018-04-16T09:09:58.196Z,53.00
2018-04-16T09:12:25.756Z,54.13
2018-04-16T09:14:53.298Z,51.17
2018-04-16T09:20:20.880Z,50.27
2018-04-16T10:17:54.664Z,46.37
2018-04-16T10:20:22.210Z,38.43
2018-04-16T10:22:49.745Z,37.80
2018-04-16T10:25:20.554Z,40.17
2018-04-16T10:27:48.878Z,42.13
2018-04-16T10:30:16.427Z,39.90
2018-04-16T10:32:43.974Z,35.20
2018-04-16T10:35:11.507Z,38.73
2018-04-16T10:37:39.821Z,38.60
2018-04-16T10:40:07.359Z,31.80
2018-04-16T10:42:34.901Z,34.63
2018-04-16T10:45:03.239Z,32.80
2018-04-16T10:47:30.792Z,33.70
2018-04-16T10:50:01.460Z,34.43
2018-04-16T10:52:29.006Z,37.33
2018-04-16T10:54:56.620Z,34.43
2018-04-16T10:57:24.176Z,31.87
2018-04-16T10:59:51.727Z,31.97
2018-04-16T11:02:19.273Z,36.13
2018-04-16T11:04:47.578Z,36.97
2018-04-16T11:07:15.121Z,34.03
2018-04-16T11:09:42.679Z,29.97
2018-04-16T11:12:10.995Z,31.57
2018-04-16T11:17:31.516Z,29.60
2018-04-16T11:20:02.452Z,31.87
2018-04-16T11:22:29.993Z,31.93
2018-04-16T11:24:57.539Z,28.57
2018-04-16T11:27:25.083Z,33.37
2018-04-16T11:29:53.399Z,30.70
2018-04-16T11:32:20.997Z,29.63
2018-04-16T11:34:48.509Z,27.17
2018-04-16T11:37:19.141Z,29.70
2018-04-16T11:39:46.678Z,26.33
2018-04-16T11:42:14.995Z,29.27
2018-04-16T11:44:43.401Z,28.17
2018-04-16T11:47:15.090Z,32.17
2018-04-16T11:49:42.647Z,31.43
2018-04-16T11:52:10.952Z,25.83
2018-04-16T11:54:41.628Z,27.33
2018-04-16T11:57:09.183Z,27.63
2018-04-16T11:59:36.706Z,27.73
2018-04-16T12:02:04.241Z,25.97
2018-04-16T12:04:32.591Z,27.43
2018-04-16T12:07:00.164Z,27.97
2018-04-16T12:09:27.706Z,27.70
2018-04-16T12:11:55.253Z,26.47
2018-04-16T12:26:18.891Z,25.27
2018-04-16T12:28:46.493Z,24.17
2018-04-16T12:31:14.051Z,25.87
2018-04-16T12:33:41.584Z,26.20
2018-04-16T12:36:14.942Z,28.17
2018-04-16T12:38:42.482Z,29.50
2018-04-16T12:41:10.796Z,26.40
2018-04-16T12:43:38.338Z,25.10
2018-04-16T12:46:05.882Z,25.80
2018-04-16T12:48:39.994Z,30.17
2018-04-16T12:51:13.454Z,32.43
2018-04-16T12:53:46.728Z,29.70
2018-04-16T12:56:14.308Z,31.37
2018-04-16T12:58:41.857Z,28.90
2018-04-16T13:01:15.367Z,31.50
2018-04-16T13:03:42.937Z,34.50
2018-04-16T13:06:10.492Z,29.30
2018-04-16T13:08:41.181Z,30.43
2018-04-16T13:11:08.727Z,32.77
2018-04-16T13:13:46.660Z,33.70
2018-04-16T13:16:14.231Z,32.10
2018-04-16T13:18:41.775Z,29.87
2018-04-16T13:21:09.323Z,31.97
2018-04-16T13:26:30.921Z,28.20
2018-04-16T13:28:59.247Z,33.27
2018-04-16T13:31:30.560Z,31.40
2018-04-16T13:34:04.072Z,31.57
2018-04-16T13:36:32.419Z,30.33
2018-04-16T13:38:59.978Z,28.77
2018-04-16T13:41:28.239Z,27.80
2018-04-16T13:43:55.793Z,29.23
2018-04-16T13:46:23.337Z,28.40
2018-04-16T13:48:50.913Z,31.87
2018-04-16T13:51:18.931Z,29.40
2018-04-16T13:53:46.478Z,28.67
2018-04-16T13:56:14.028Z,29.47
2018-04-16T13:58:44.905Z,31.77
2018-04-16T14:01:12.454Z,29.10
2018-04-16T14:03:40.764Z,29.17
2018-04-16T14:06:14.107Z,27.53
2018-04-16T14:08:47.576Z,29.80
2018-04-16T14:11:15.159Z,31.40
2018-04-16T14:13:42.708Z,30.47
2018-04-16T15:14:10.390Z,29.27
2018-04-16T15:16:37.936Z,26.30
2018-04-16T15:19:05.504Z,28.33
2018-04-16T15:21:36.108Z,29.57
2018-04-16T15:24:03.660Z,32.83
2018-04-16T15:26:31.235Z,30.63
2018-04-16T15:28:58.805Z,29.03
2018-04-16T15:31:26.340Z,28.83
2018-04-16T15:33:53.902Z,31.77
2018-04-16T15:36:21.443Z,28.63
2018-04-16T15:38:49.759Z,28.07
2018-04-16T15:41:17.354Z,29.00
2018-04-16T15:43:44.912Z,29.07
2018-04-16T15:46:12.544Z,33.17
2018-04-16T15:48:43.263Z,34.40
2018-04-16T15:51:10.819Z,31.63
2018-04-16T15:53:38.372Z,32.07
2018-04-16T15:56:05.914Z,27.50
2018-04-16T15:58:34.275Z,29.20
2018-04-16T16:01:02.607Z,31.63
2018-04-16T16:03:30.164Z,33.07
2018-04-16T16:06:01.088Z,33.10
2018-04-16T16:08:28.634Z,31.13
2018-04-16T16:10:56.958Z,36.03
2018-04-16T16:13:24.528Z,34.43
2018-04-16T16:15:52.106Z,34.70
2018-04-16T16:18:19.670Z,32.47
2018-04-16T16:20:47.246Z,36.17
2018-04-16T16:23:14.792Z,25.63
2018-04-16T16:25:43.094Z,31.27
2018-04-16T16:28:13.852Z,25.57
2018-04-16T16:30:41.387Z,27.43
2018-04-16T16:33:08.946Z,30.33
2018-04-16T16:35:37.249Z,35.27
2018-04-16T16:38:05.511Z,28.00
2018-04-16T16:40:33.061Z,28.17
2018-04-16T16:43:00.604Z,27.57
2018-04-16T16:45:28.913Z,31.10
2018-04-16T16:48:02.673Z,28.03
2018-04-16T16:50:45.547Z,26.40
2018-04-16T16:53:19.631Z,29.00
2018-04-16T16:56:00.517Z,27.00
2018-04-16T17:11:27.210Z,28.03
2018-04-16T17:29:47.485Z,31.83
2018-04-16T17:32:15.080Z,31.37
2018-04-16T17:34:43.428Z,32.57
2018-04-16T17:37:11.005Z,32.20
2018-04-16T17:39:38.637Z,30.10
2018-04-16T17:42:06.229Z,26.47
2018-04-16T17:44:34.163Z,26.50
2018-04-16T17:47:01.972Z,27.83
2018-04-16T17:49:30.332Z,26.70
2018-04-16T18:01:41.267Z,29.17
2018-04-16T18:04:08.827Z,30.63
2018-04-16T18:06:36.839Z,29.23
2018-04-16T18:09:06.923Z,34.13
2018-04-16T18:11:34.489Z,36.23
2018-04-16T18:19:54.152Z,32.50
2018-04-16T18:22:22.510Z,36.83
2018-04-16T18:24:50.857Z,36.10
2018-04-16T18:27:18.460Z,37.43
2018-04-16T18:29:46.760Z,38.90
2018-04-16T18:32:14.312Z,37.30
2018-04-16T18:34:41.860Z,36.30
2018-04-16T18:37:13.341Z,38.33
2018-04-16T18:39:40.895Z,35.17
2018-04-16T18:42:08.452Z,36.97
2018-04-16T18:44:35.993Z,39.67
2018-04-16T18:47:03.530Z,41.37
2018-04-16T18:49:31.071Z,36.80
2018-04-16T18:51:58.613Z,42.40
2018-04-16T18:54:29.149Z,42.53
2018-04-16T18:56:56.693Z,44.50
2018-04-16T18:59:24.248Z,43.27
2018-04-16T19:01:51.807Z,42.67
2018-04-16T19:04:19.354Z,40.83
2018-04-16T19:06:47.587Z,40.03
2018-04-16T19:09:15.148Z,43.57
2018-04-16T19:11:42.675Z,42.20
2018-04-16T19:14:10.212Z,41.37
2018-04-16T19:16:37.758Z,44.80
2018-04-16T19:19:06.072Z,47.67
2018-04-16T19:21:46.583Z,47.37
2018-04-16T19:24:19.496Z,49.40
2018-04-16T19:26:52.600Z,44.70
2018-04-16T19:29:20.179Z,49.33
2018-04-16T19:31:47.720Z,42.70
2018-04-16T19:34:20.806Z,50.13
2018-04-16T19:36:48.346Z,51.07
2018-04-16T19:39:16.650Z,45.63
2018-04-16T19:41:49.831Z,51.47
2018-04-16T19:44:17.417Z,50.90
2018-04-16T19:46:45.683Z,46.07
2018-04-16T19:49:19.033Z,47.60
2018-04-16T19:51:46.566Z,46.40
2018-04-16T19:54:17.234Z,47.87
2018-04-16T19:56:51.269Z,50.73
2018-04-16T19:59:18.877Z,44.70
2018-04-16T20:01:52.100Z,50.77
2018-04-16T20:04:20.418Z,47.90
2018-04-16T20:06:47.957Z,50.10
2018-04-16T20:09:15.496Z,56.47
2018-04-16T20:11:43.037Z,55.90
2018-04-16T20:14:10.607Z,51.57
2018-04-16T20:19:35.736Z,48.83
2018-04-16T21:14:05.191Z,46.53
2018-04-16T21:25:24.666Z,43.43
2018-04-16T21:27:52.203Z,43.57
2018-04-16T21:30:20.523Z,47.23
2018-04-16T21:32:48.067Z,48.33
2018-04-16T21:35:18.922Z,47.57
2018-04-16T21:37:46.443Z,52.03
2018-04-16T21:40:13.984Z,44.90
2018-04-16T21:42:42.295Z,45.70
2018-04-16T21:45:09.832Z,46.07
2018-04-16T21:47:38.128Z,48.83
2018-04-16T21:50:05.691Z,48.57
2018-04-16T21:52:33.223Z,45.93
2018-04-16T21:55:01.521Z,45.33
2018-04-16T21:57:32.116Z,43.03
2018-04-16T21:59:59.669Z,44.30
2018-04-16T22:02:27.224Z,48.77
2018-04-16T22:04:54.758Z,46.50
2018-04-16T22:07:22.289Z,44.40
2018-04-16T22:09:49.850Z,48.53
2018-04-16T22:12:17.383Z,45.93
2018-04-16T22:17:38.938Z,49.50
2018-04-16T22:25:50.924Z,46.37
2018-04-16T22:28:18.469Z,47.63
2018-04-16T22:30:46.002Z,48.53
2018-04-16T22:33:13.549Z,49.10
2018-04-16T22:35:41.087Z,53.53
2018-04-16T22:38:08.627Z,50.20
2018-04-16T22:40:36.174Z,52.57
2018-04-16T22:43:03.761Z,47.60
2018-04-16T22:45:31.309Z,49.30
2018-04-16T22:47:58.857Z,51.80
2018-04-16T22:50:26.503Z,56.20
2018-04-16T22:52:57.299Z,54.70
2018-04-16T22:55:24.849Z,53.70
2018-04-16T22:57:52.393Z,54.03
2018-04-16T23:00:19.943Z,58.87
2018-04-16T23:02:47.473Z,57.17
2018-04-16T23:05:15.013Z,54.60
2018-04-16T23:07:42.554Z,56.20
2018-04-16T23:10:10.854Z,54.60
2018-04-16T23:12:38.387Z,54.63
2018-04-16T23:17:59.318Z,51.20
